sensor_id;sensor_type;location;lat;lon;timestamp;P1;durP1;ratioP1;P2;durP2;ratioP2
62151;SDS011;48139;47.474;19.034;2023-05-10T03:43:37;6.95;;;2.72;;
62151;SDS011;48139;47.474;19.034;2023-05-10T03:46:43;5.18;;;2.62;;
62151;SDS011;48139;47.474;19.034;2023-05-10T03:49:48;6.45;;;3.85;;
62151;SDS011;48139;47.474;19.034;2023-05-10T03:52:52;6.80;;;3.72;;
62151;SDS011;48139;47.474;19.034;2023-05-10T03:55:56;8.15;;;3.65;;
62151;SDS011;48139;47.474;19.034;2023-05-10T03:58:58;13.55;;;3.90;;
62151;SDS011;48139;47.474;19.034;2023-05-10T04:02:01;8.15;;;3.17;;
62151;SDS011;48139;47.474;19.034;2023-05-10T04:05:04;5.35;;;3.00;;
62151;SDS011;48139;47.474;19.034;2023-05-10T04:08:07;11.10;;;5.18;;
62151;SDS011;48139;47.474;19.034;2023-05-10T04:11:10;6.60;;;3.08;;
62151;SDS011;48139;47.474;19.034;2023-05-10T04:14:14;5.70;;;2.92;;
62151;SDS011;48139;47.474;19.034;2023-05-10T04:17:16;5.75;;;2.80;;
62151;SDS011;48139;47.474;19.034;2023-05-10T04:20:19;5.68;;;3.08;;
62151;SDS011;48139;47.474;19.034;2023-05-10T04:23:21;6.85;;;3.37;;
62151;SDS011;48139;47.474;19.034;2023-05-10T04:26:24;5.68;;;3.50;;
62151;SDS011;48139;47.474;19.034;2023-05-10T04:29:27;5.90;;;3.58;;
62151;SDS011;48139;47.474;19.034;2023-05-10T04:32:30;7.40;;;3.95;;
62151;SDS011;48139;47.474;19.034;2023-05-10T04:35:34;7.53;;;3.35;;
62151;SDS011;48139;47.474;19.034;2023-05-10T04:38:37;5.20;;;3.42;;
62151;SDS011;48139;47.474;19.034;2023-05-10T04:41:39;5.87;;;3.27;;
62151;SDS011;48139;47.474;19.034;2023-05-10T04:44:42;5.72;;;3.15;;
62151;SDS011;48139;47.474;19.034;2023-05-10T04:47:44;6.17;;;3.53;;
62151;SDS011;48139;47.474;19.034;2023-05-10T04:50:47;8.80;;;4.47;;
62151;SDS011;48139;47.474;19.034;2023-05-10T04:53:49;6.15;;;3.55;;
62151;SDS011;48139;47.474;19.034;2023-05-10T04:57:06;5.95;;;3.15;;
62151;SDS011;48139;47.474;19.034;2023-05-10T05:00:09;5.45;;;3.33;;
62151;SDS011;48139;47.474;19.034;2023-05-10T05:03:12;6.28;;;2.97;;
62151;SDS011;48139;47.474;19.034;2023-05-10T05:06:15;5.72;;;3.33;;
62151;SDS011;48139;47.474;19.034;2023-05-10T05:09:17;6.95;;;3.53;;
62151;SDS011;48139;47.474;19.034;2023-05-10T05:12:20;5.57;;;3.53;;
62151;SDS011;48139;47.474;19.034;2023-05-10T05:15:22;5.90;;;3.72;;
62151;SDS011;48139;47.474;19.034;2023-05-10T05:18:25;5.60;;;3.42;;
62151;SDS011;48139;47.474;19.034;2023-05-10T05:21:28;5.57;;;3.50;;
62151;SDS011;48139;47.474;19.034;2023-05-10T05:24:34;8.48;;;3.50;;
62151;SDS011;48139;47.474;19.034;2023-05-10T05:27:38;11.48;;;3.40;;
62151;SDS011;48139;47.474;19.034;2023-05-10T05:30:41;5.97;;;3.90;;
62151;SDS011;48139;47.474;19.034;2023-05-10T05:33:43;5.93;;;3.17;;
62151;SDS011;48139;47.474;19.034;2023-05-10T05:39:49;7.35;;;3.80;;
62151;SDS011;48139;47.474;19.034;2023-05-10T05:42:52;8.23;;;4.70;;
62151;SDS011;48139;47.474;19.034;2023-05-10T05:45:55;9.32;;;3.60;;
62151;SDS011;48139;47.474;19.034;2023-05-10T05:49:04;5.65;;;3.08;;
62151;SDS011;48139;47.474;19.034;2023-05-10T05:52:07;6.82;;;3.97;;
62151;SDS011;48139;47.474;19.034;2023-05-10T05:55:10;7.30;;;3.47;;
62151;SDS011;48139;47.474;19.034;2023-05-10T05:58:13;5.70;;;3.20;;
62151;SDS011;48139;47.474;19.034;2023-05-10T06:01:16;6.00;;;3.57;;
62151;SDS011;48139;47.474;19.034;2023-05-10T06:04:19;6.37;;;3.87;;
62151;SDS011;48139;47.474;19.034;2023-05-10T06:07:21;7.35;;;3.58;;
62151;SDS011;48139;47.474;19.034;2023-05-10T06:10:24;5.63;;;3.50;;
62151;SDS011;48139;47.474;19.034;2023-05-10T06:13:27;9.40;;;3.92;;
62151;SDS011;48139;47.474;19.034;2023-05-10T06:16:38;7.45;;;3.95;;
62151;SDS011;48139;47.474;19.034;2023-05-10T06:19:54;5.70;;;3.30;;
62151;SDS011;48139;47.474;19.034;2023-05-10T06:22:58;8.02;;;3.75;;
62151;SDS011;48139;47.474;19.034;2023-05-10T06:26:00;7.50;;;3.87;;
62151;SDS011;48139;47.474;19.034;2023-05-10T06:29:03;7.00;;;3.72;;
62151;SDS011;48139;47.474;19.034;2023-05-10T06:32:05;5.95;;;2.72;;
62151;SDS011;48139;47.474;19.034;2023-05-10T06:35:08;6.20;;;3.27;;
62151;SDS011;48139;47.474;19.034;2023-05-10T06:38:11;6.72;;;3.35;;
62151;SDS011;48139;47.474;19.034;2023-05-10T06:41:13;6.90;;;3.77;;
62151;SDS011;48139;47.474;19.034;2023-05-10T06:44:16;5.95;;;3.92;;
62151;SDS011;48139;47.474;19.034;2023-05-10T06:47:19;9.32;;;4.93;;
62151;SDS011;48139;47.474;19.034;2023-05-10T06:50:21;6.25;;;3.12;;
62151;SDS011;48139;47.474;19.034;2023-05-10T06:53:24;6.20;;;3.53;;
62151;SDS011;48139;47.474;19.034;2023-05-10T06:56:30;5.80;;;3.45;;
62151;SDS011;48139;47.474;19.034;2023-05-10T06:59:33;5.45;;;3.05;;
62151;SDS011;48139;47.474;19.034;2023-05-10T07:02:35;5.40;;;3.30;;
62151;SDS011;48139;47.474;19.034;2023-05-10T07:05:38;7.03;;;4.40;;
62151;SDS011;48139;47.474;19.034;2023-05-10T07:08:41;5.60;;;3.50;;
62151;SDS011;48139;47.474;19.034;2023-05-10T07:11:43;5.73;;;3.00;;
62151;SDS011;48139;47.474;19.034;2023-05-10T07:14:46;6.97;;;3.85;;
62151;SDS011;48139;47.474;19.034;2023-05-10T07:17:49;6.68;;;3.97;;
62151;SDS011;48139;47.474;19.034;2023-05-10T07:20:51;7.07;;;3.70;;
62151;SDS011;48139;47.474;19.034;2023-05-10T07:23:54;8.60;;;4.40;;
62151;SDS011;48139;47.474;19.034;2023-05-10T07:26:56;7.03;;;3.28;;
62151;SDS011;48139;47.474;19.034;2023-05-10T07:29:59;6.53;;;3.57;;
62151;SDS011;48139;47.474;19.034;2023-05-10T07:33:02;7.85;;;3.67;;
62151;SDS011;48139;47.474;19.034;2023-05-10T07:36:05;5.68;;;3.45;;
62151;SDS011;48139;47.474;19.034;2023-05-10T07:39:08;5.03;;;3.00;;
62151;SDS011;48139;47.474;19.034;2023-05-10T07:45:14;4.28;;;2.58;;
62151;SDS011;48139;47.474;19.034;2023-05-10T07:48:17;7.47;;;3.78;;
62151;SDS011;48139;47.474;19.034;2023-05-10T07:51:19;5.87;;;3.45;;
62151;SDS011;48139;47.474;19.034;2023-05-10T07:54:22;6.40;;;3.30;;
62151;SDS011;48139;47.474;19.034;2023-05-10T07:57:24;5.30;;;3.07;;
62151;SDS011;48139;47.474;19.034;2023-05-10T08:00:27;5.12;;;2.90;;
62151;SDS011;48139;47.474;19.034;2023-05-10T08:03:30;5.47;;;2.47;;
62151;SDS011;48139;47.474;19.034;2023-05-10T08:06:32;5.57;;;2.95;;
62151;SDS011;48139;47.474;19.034;2023-05-10T08:09:35;5.25;;;2.60;;
62151;SDS011;48139;47.474;19.034;2023-05-10T08:12:40;6.75;;;3.05;;
62151;SDS011;48139;47.474;19.034;2023-05-10T08:15:43;5.10;;;2.80;;
62151;SDS011;48139;47.474;19.034;2023-05-10T08:18:46;6.90;;;4.63;;
62151;SDS011;48139;47.474;19.034;2023-05-10T08:24:51;5.90;;;3.60;;
62151;SDS011;48139;47.474;19.034;2023-05-10T08:27:54;5.87;;;3.12;;
62151;SDS011;48139;47.474;19.034;2023-05-10T08:30:56;4.82;;;2.65;;
62151;SDS011;48139;47.474;19.034;2023-05-10T08:33:59;5.55;;;3.17;;
62151;SDS011;48139;47.474;19.034;2023-05-10T08:37:02;6.18;;;3.03;;
62151;SDS011;48139;47.474;19.034;2023-05-10T08:43:11;4.47;;;2.37;;
62151;SDS011;48139;47.474;19.034;2023-05-10T08:46:15;8.90;;;3.12;;
62151;SDS011;48139;47.474;19.034;2023-05-10T08:49:20;6.82;;;3.75;;
62151;SDS011;48139;47.474;19.034;2023-05-10T08:52:24;6.40;;;3.67;;
62151;SDS011;48139;47.474;19.034;2023-05-10T08:55:28;5.78;;;3.20;;
62151;SDS011;48139;47.474;19.034;2023-05-10T08:58:31;6.07;;;2.95;;
62151;SDS011;48139;47.474;19.034;2023-05-10T09:01:35;6.00;;;2.67;;
62151;SDS011;48139;47.474;19.034;2023-05-10T09:04:38;4.50;;;2.62;;
62151;SDS011;48139;47.474;19.034;2023-05-10T09:07:41;6.73;;;3.47;;
62151;SDS011;48139;47.474;19.034;2023-05-10T09:10:44;10.57;;;4.35;;
62151;SDS011;48139;47.474;19.034;2023-05-10T09:13:49;6.25;;;3.45;;
62151;SDS011;48139;47.474;19.034;2023-05-10T09:16:54;5.65;;;3.03;;
62151;SDS011;48139;47.474;19.034;2023-05-10T09:20:01;6.60;;;3.20;;
62151;SDS011;48139;47.474;19.034;2023-05-10T09:23:06;6.35;;;2.80;;
62151;SDS011;48139;47.474;19.034;2023-05-10T09:26:09;5.68;;;2.85;;
62151;SDS011;48139;47.474;19.034;2023-05-10T09:29:12;7.00;;;3.42;;
62151;SDS011;48139;47.474;19.034;2023-05-10T09:32:18;5.97;;;3.05;;
62151;SDS011;48139;47.474;19.034;2023-05-10T09:35:22;6.87;;;3.20;;
62151;SDS011;48139;47.474;19.034;2023-05-10T09:38:31;5.05;;;2.72;;
62151;SDS011;48139;47.474;19.034;2023-05-10T09:41:47;5.60;;;2.75;;
62151;SDS011;48139;47.474;19.034;2023-05-10T09:44:50;4.45;;;2.87;;
62151;SDS011;48139;47.474;19.034;2023-05-10T09:47:53;5.95;;;3.95;;
62151;SDS011;48139;47.474;19.034;2023-05-10T09:54:15;5.18;;;2.50;;
62151;SDS011;48139;47.474;19.034;2023-05-10T09:57:22;5.10;;;2.92;;
62151;SDS011;48139;47.474;19.034;2023-05-10T10:00:26;4.68;;;2.67;;
62151;SDS011;48139;47.474;19.034;2023-05-10T10:03:30;6.25;;;2.67;;
62151;SDS011;48139;47.474;19.034;2023-05-10T10:06:36;7.32;;;3.30;;
62151;SDS011;48139;47.474;19.034;2023-05-10T10:09:40;4.50;;;3.03;;
62151;SDS011;48139;47.474;19.034;2023-05-10T10:12:43;5.05;;;2.47;;
62151;SDS011;48139;47.474;19.034;2023-05-10T10:15:46;4.47;;;2.65;;
62151;SDS011;48139;47.474;19.034;2023-05-10T10:18:52;5.82;;;2.62;;
62151;SDS011;48139;47.474;19.034;2023-05-10T10:21:56;4.35;;;2.37;;
62151;SDS011;48139;47.474;19.034;2023-05-10T10:24:58;4.25;;;2.35;;
62151;SDS011;48139;47.474;19.034;2023-05-10T10:28:05;6.03;;;2.72;;
62151;SDS011;48139;47.474;19.034;2023-05-10T10:34:49;5.87;;;2.80;;
62151;SDS011;48139;47.474;19.034;2023-05-10T10:37:52;3.83;;;2.35;;
62151;SDS011;48139;47.474;19.034;2023-05-10T10:41:01;6.82;;;2.78;;
62151;SDS011;48139;47.474;19.034;2023-05-10T10:47:28;4.65;;;2.03;;
62151;SDS011;48139;47.474;19.034;2023-05-10T10:50:43;4.53;;;2.42;;
62151;SDS011;48139;47.474;19.034;2023-05-10T10:53:47;5.20;;;2.05;;
62151;SDS011;48139;47.474;19.034;2023-05-10T10:57:11;3.55;;;1.80;;
62151;SDS011;48139;47.474;19.034;2023-05-10T11:00:20;4.12;;;1.98;;
62151;SDS011;48139;47.474;19.034;2023-05-10T11:03:29;5.28;;;2.80;;
62151;SDS011;48139;47.474;19.034;2023-05-10T11:06:33;4.18;;;2.33;;
62151;SDS011;48139;47.474;19.034;2023-05-10T11:09:40;3.92;;;2.10;;
62151;SDS011;48139;47.474;19.034;2023-05-10T11:12:53;3.40;;;1.58;;
62151;SDS011;48139;47.474;19.034;2023-05-10T11:16:22;3.62;;;1.60;;
62151;SDS011;48139;47.474;19.034;2023-05-10T11:19:29;3.70;;;1.87;;
62151;SDS011;48139;47.474;19.034;2023-05-10T11:22:31;5.07;;;2.00;;
62151;SDS011;48139;47.474;19.034;2023-05-10T11:25:52;6.35;;;3.28;;
62151;SDS011;48139;47.474;19.034;2023-05-10T11:28:56;4.05;;;2.10;;
62151;SDS011;48139;47.474;19.034;2023-05-10T11:32:02;2.53;;;1.60;;
62151;SDS011;48139;47.474;19.034;2023-05-10T11:35:10;3.10;;;1.62;;
62151;SDS011;48139;47.474;19.034;2023-05-10T11:38:14;3.03;;;1.62;;
62151;SDS011;48139;47.474;19.034;2023-05-10T11:41:17;3.70;;;1.60;;
62151;SDS011;48139;47.474;19.034;2023-05-10T11:44:28;4.03;;;1.80;;
62151;SDS011;48139;47.474;19.034;2023-05-10T11:47:31;3.25;;;1.95;;
62151;SDS011;48139;47.474;19.034;2023-05-10T11:50:34;4.03;;;1.70;;
62151;SDS011;48139;47.474;19.034;2023-05-10T11:53:36;3.92;;;2.00;;
62151;SDS011;48139;47.474;19.034;2023-05-10T11:56:40;2.55;;;1.33;;
62151;SDS011;48139;47.474;19.034;2023-05-10T11:59:43;3.50;;;1.80;;
62151;SDS011;48139;47.474;19.034;2023-05-10T12:02:46;3.35;;;1.50;;
62151;SDS011;48139;47.474;19.034;2023-05-10T12:05:49;4.18;;;1.62;;
62151;SDS011;48139;47.474;19.034;2023-05-10T12:08:51;3.70;;;1.87;;
62151;SDS011;48139;47.474;19.034;2023-05-10T12:11:58;3.95;;;1.90;;
62151;SDS011;48139;47.474;19.034;2023-05-10T12:15:01;4.53;;;1.50;;
62151;SDS011;48139;47.474;19.034;2023-05-10T12:18:05;2.37;;;1.50;;
62151;SDS011;48139;47.474;19.034;2023-05-10T12:21:10;2.87;;;1.30;;
62151;SDS011;48139;47.474;19.034;2023-05-10T12:24:14;5.87;;;2.10;;
62151;SDS011;48139;47.474;19.034;2023-05-10T12:27:19;3.95;;;1.90;;
62151;SDS011;48139;47.474;19.034;2023-05-10T12:30:23;3.15;;;1.52;;
62151;SDS011;48139;47.474;19.034;2023-05-10T12:33:28;3.40;;;1.75;;
62151;SDS011;48139;47.474;19.034;2023-05-10T12:36:38;2.62;;;1.58;;
62151;SDS011;48139;47.474;19.034;2023-05-10T12:39:41;3.95;;;2.00;;
62151;SDS011;48139;47.474;19.034;2023-05-10T12:42:45;4.53;;;2.00;;
62151;SDS011;48139;47.474;19.034;2023-05-10T12:45:48;4.45;;;1.73;;
62151;SDS011;48139;47.474;19.034;2023-05-10T12:48:51;4.40;;;2.28;;
62151;SDS011;48139;47.474;19.034;2023-05-10T12:52:09;3.85;;;1.85;;
62151;SDS011;48139;47.474;19.034;2023-05-10T12:55:11;2.92;;;1.70;;
62151;SDS011;48139;47.474;19.034;2023-05-10T12:58:14;3.70;;;2.07;;
62151;SDS011;48139;47.474;19.034;2023-05-10T13:01:36;3.20;;;1.42;;
62151;SDS011;48139;47.474;19.034;2023-05-10T13:04:38;2.25;;;1.30;;
62151;SDS011;48139;47.474;19.034;2023-05-10T13:07:42;3.10;;;1.62;;
62151;SDS011;48139;47.474;19.034;2023-05-10T13:10:45;3.00;;;1.23;;
62151;SDS011;48139;47.474;19.034;2023-05-10T13:13:48;4.50;;;1.27;;
62151;SDS011;48139;47.474;19.034;2023-05-10T13:16:50;4.07;;;1.43;;
62151;SDS011;48139;47.474;19.034;2023-05-10T13:19:53;3.72;;;1.70;;
62151;SDS011;48139;47.474;19.034;2023-05-10T13:22:55;3.43;;;1.63;;
62151;SDS011;48139;47.474;19.034;2023-05-10T13:25:58;1.83;;;0.90;;
62151;SDS011;48139;47.474;19.034;2023-05-10T13:29:00;2.75;;;1.50;;
62151;SDS011;48139;47.474;19.034;2023-05-10T13:32:03;3.03;;;1.30;;
62151;SDS011;48139;47.474;19.034;2023-05-10T13:35:07;4.75;;;1.87;;
62151;SDS011;48139;47.474;19.034;2023-05-10T13:38:10;2.80;;;1.40;;
62151;SDS011;48139;47.474;19.034;2023-05-10T13:41:16;2.85;;;1.45;;
62151;SDS011;48139;47.474;19.034;2023-05-10T13:44:20;5.53;;;2.42;;
62151;SDS011;48139;47.474;19.034;2023-05-10T13:50:24;2.70;;;1.40;;
62151;SDS011;48139;47.474;19.034;2023-05-10T13:53:27;2.92;;;1.37;;
62151;SDS011;48139;47.474;19.034;2023-05-10T13:56:30;2.37;;;1.50;;
62151;SDS011;48139;47.474;19.034;2023-05-10T13:59:32;1.77;;;1.08;;
62151;SDS011;48139;47.474;19.034;2023-05-10T14:02:35;4.57;;;1.73;;
62151;SDS011;48139;47.474;19.034;2023-05-10T14:05:38;3.15;;;1.30;;
62151;SDS011;48139;47.474;19.034;2023-05-10T14:08:40;2.97;;;1.20;;
62151;SDS011;48139;47.474;19.034;2023-05-10T14:11:43;3.35;;;1.62;;
62151;SDS011;48139;47.474;19.034;2023-05-10T14:14:46;8.60;;;2.58;;
62151;SDS011;48139;47.474;19.034;2023-05-10T14:17:49;1.77;;;1.20;;
62151;SDS011;48139;47.474;19.034;2023-05-10T14:20:51;3.12;;;1.55;;
62151;SDS011;48139;47.474;19.034;2023-05-10T14:23:54;3.55;;;1.45;;
62151;SDS011;48139;47.474;19.034;2023-05-10T14:26:57;2.05;;;1.30;;
62151;SDS011;48139;47.474;19.034;2023-05-10T14:30:00;2.12;;;1.25;;
62151;SDS011;48139;47.474;19.034;2023-05-10T14:33:04;3.08;;;1.30;;
62151;SDS011;48139;47.474;19.034;2023-05-10T14:36:07;2.62;;;1.27;;
62151;SDS011;48139;47.474;19.034;2023-05-10T14:39:10;2.67;;;1.27;;
62151;SDS011;48139;47.474;19.034;2023-05-10T14:42:15;3.00;;;1.40;;
62151;SDS011;48139;47.474;19.034;2023-05-10T14:45:17;2.70;;;1.47;;
62151;SDS011;48139;47.474;19.034;2023-05-10T14:51:23;3.15;;;1.40;;
62151;SDS011;48139;47.474;19.034;2023-05-10T14:54:25;3.78;;;1.55;;
62151;SDS011;48139;47.474;19.034;2023-05-10T14:57:28;2.33;;;1.00;;
62151;SDS011;48139;47.474;19.034;2023-05-10T15:00:31;2.55;;;1.12;;
62151;SDS011;48139;47.474;19.034;2023-05-10T15:03:34;3.35;;;1.83;;
62151;SDS011;48139;47.474;19.034;2023-05-10T15:06:38;4.45;;;1.60;;
62151;SDS011;48139;47.474;19.034;2023-05-10T15:09:40;2.70;;;1.33;;
62151;SDS011;48139;47.474;19.034;2023-05-10T15:12:43;5.10;;;3.47;;
62151;SDS011;48139;47.474;19.034;2023-05-10T15:15:45;1.90;;;1.10;;
62151;SDS011;48139;47.474;19.034;2023-05-10T15:18:48;2.50;;;1.27;;
62151;SDS011;48139;47.474;19.034;2023-05-10T15:21:50;3.80;;;1.37;;
62151;SDS011;48139;47.474;19.034;2023-05-10T15:24:53;3.72;;;1.23;;
62151;SDS011;48139;47.474;19.034;2023-05-10T15:27:55;1.40;;;1.00;;
62151;SDS011;48139;47.474;19.034;2023-05-10T15:30:58;1.92;;;1.20;;
62151;SDS011;48139;47.474;19.034;2023-05-10T15:34:02;2.53;;;1.17;;
62151;SDS011;48139;47.474;19.034;2023-05-10T15:37:05;2.65;;;1.23;;
62151;SDS011;48139;47.474;19.034;2023-05-10T15:40:07;2.47;;;1.15;;
62151;SDS011;48139;47.474;19.034;2023-05-10T15:43:10;2.45;;;1.15;;
62151;SDS011;48139;47.474;19.034;2023-05-10T15:46:12;3.70;;;1.20;;
62151;SDS011;48139;47.474;19.034;2023-05-10T15:49:15;2.65;;;1.20;;
62151;SDS011;48139;47.474;19.034;2023-05-10T15:52:18;1.90;;;1.15;;
62151;SDS011;48139;47.474;19.034;2023-05-10T15:55:22;3.03;;;1.50;;
62151;SDS011;48139;47.474;19.034;2023-05-10T16:41:41;4.00;;;1.60;;
62151;SDS011;48139;47.474;19.034;2023-05-10T16:44:44;7.45;;;1.42;;
62151;SDS011;48139;47.474;19.034;2023-05-10T16:47:46;4.30;;;1.33;;
62151;SDS011;48139;47.474;19.034;2023-05-10T16:50:49;3.45;;;1.20;;
62151;SDS011;48139;47.474;19.034;2023-05-10T16:53:52;3.70;;;1.60;;
62151;SDS011;48139;47.474;19.034;2023-05-10T16:56:54;4.97;;;1.60;;
62151;SDS011;48139;47.474;19.034;2023-05-10T16:59:57;3.90;;;1.83;;
62151;SDS011;48139;47.474;19.034;2023-05-10T17:03:00;3.08;;;1.90;;
62151;SDS011;48139;47.474;19.034;2023-05-10T17:06:04;3.92;;;1.73;;
62151;SDS011;48139;47.474;19.034;2023-05-10T17:09:07;4.82;;;1.90;;
62151;SDS011;48139;47.474;19.034;2023-05-10T17:12:09;3.83;;;1.77;;
62151;SDS011;48139;47.474;19.034;2023-05-10T17:15:12;2.92;;;1.65;;
62151;SDS011;48139;47.474;19.034;2023-05-10T17:18:17;4.20;;;1.95;;
